Terminal Aerodrome Forecast
Issued by NWS

Home | Current Version | Previous Version | Text Only | Print | Product List | Glossary On
Versions: 1 2 3 4 5 6 7 8 9 10 11 12 13 14 15 16 17
386
FTUS43 KJKL 211741
TAFSME
TAF
KSME 211741Z 2118/2218 28008G15KT P6SM VCSH BKN040
     FM220100 33007KT P6SM BKN050
     FM220500 VRB05KT P6SM SCT100=

USA.gov is the U.S. government's official web portal to all federal, state and local government web resources and services.